sensor_id;sensor_type;location;lat;lon;timestamp;P1;durP1;ratioP1;P2;durP2;ratioP2
24034;SDS011;12242;50.952;4.678;2022-08-21T00:02:01;7.78;;;2.55;;
24034;SDS011;12242;50.952;4.678;2022-08-21T00:04:30;9.38;;;2.55;;
24034;SDS011;12242;50.952;4.678;2022-08-21T00:06:58;5.53;;;2.30;;
24034;SDS011;12242;50.952;4.678;2022-08-21T00:09:25;6.65;;;2.60;;
24034;SDS011;12242;50.952;4.678;2022-08-21T00:11:53;5.53;;;2.63;;
24034;SDS011;12242;50.952;4.678;2022-08-21T00:14:23;6.13;;;2.92;;
24034;SDS011;12242;50.952;4.678;2022-08-21T00:16:50;7.15;;;2.95;;
24034;SDS011;12242;50.952;4.678;2022-08-21T00:19:22;6.78;;;2.55;;
24034;SDS011;12242;50.952;4.678;2022-08-21T00:21:51;5.60;;;2.40;;
24034;SDS011;12242;50.952;4.678;2022-08-21T00:24:20;6.40;;;2.60;;
24034;SDS011;12242;50.952;4.678;2022-08-21T00:26:49;7.60;;;2.78;;
24034;SDS011;12242;50.952;4.678;2022-08-21T00:29:20;6.82;;;2.50;;
24034;SDS011;12242;50.952;4.678;2022-08-21T00:31:50;6.93;;;2.60;;
24034;SDS011;12242;50.952;4.678;2022-08-21T00:34:20;5.40;;;2.53;;
24034;SDS011;12242;50.952;4.678;2022-08-21T00:36:47;4.68;;;2.10;;
24034;SDS011;12242;50.952;4.678;2022-08-21T00:39:15;4.80;;;2.30;;
24034;SDS011;12242;50.952;4.678;2022-08-21T00:41:43;4.30;;;2.00;;
24034;SDS011;12242;50.952;4.678;2022-08-21T00:44:12;5.00;;;2.40;;
24034;SDS011;12242;50.952;4.678;2022-08-21T00:46:42;4.55;;;2.00;;
24034;SDS011;12242;50.952;4.678;2022-08-21T00:49:10;4.00;;;2.13;;
24034;SDS011;12242;50.952;4.678;2022-08-21T00:51:40;6.55;;;2.15;;
24034;SDS011;12242;50.952;4.678;2022-08-21T00:54:13;6.40;;;2.42;;
24034;SDS011;12242;50.952;4.678;2022-08-21T00:56:45;6.90;;;2.70;;
24034;SDS011;12242;50.952;4.678;2022-08-21T01:01:48;5.75;;;2.50;;
24034;SDS011;12242;50.952;4.678;2022-08-21T01:04:17;5.88;;;2.20;;
24034;SDS011;12242;50.952;4.678;2022-08-21T01:06:45;5.95;;;2.47;;
24034;SDS011;12242;50.952;4.678;2022-08-21T01:09:13;4.28;;;2.22;;
24034;SDS011;12242;50.952;4.678;2022-08-21T01:11:41;8.93;;;2.15;;
24034;SDS011;12242;50.952;4.678;2022-08-21T01:14:10;7.22;;;2.65;;
24034;SDS011;12242;50.952;4.678;2022-08-21T01:16:40;7.30;;;2.55;;
24034;SDS011;12242;50.952;4.678;2022-08-21T01:19:12;4.07;;;2.17;;
24034;SDS011;12242;50.952;4.678;2022-08-21T01:21:40;6.80;;;2.00;;
24034;SDS011;12242;50.952;4.678;2022-08-21T01:24:12;5.82;;;2.42;;
24034;SDS011;12242;50.952;4.678;2022-08-21T01:26:40;5.95;;;2.25;;
24034;SDS011;12242;50.952;4.678;2022-08-21T01:29:16;5.60;;;2.30;;
24034;SDS011;12242;50.952;4.678;2022-08-21T01:31:59;9.38;;;2.35;;
24034;SDS011;12242;50.952;4.678;2022-08-21T01:34:31;6.47;;;2.10;;
24034;SDS011;12242;50.952;4.678;2022-08-21T01:37:03;6.22;;;2.03;;
24034;SDS011;12242;50.952;4.678;2022-08-21T01:39:33;5.25;;;2.33;;
24034;SDS011;12242;50.952;4.678;2022-08-21T01:42:04;7.80;;;2.50;;
24034;SDS011;12242;50.952;4.678;2022-08-21T01:44:34;5.40;;;2.20;;
24034;SDS011;12242;50.952;4.678;2022-08-21T01:47:03;5.22;;;2.20;;
24034;SDS011;12242;50.952;4.678;2022-08-21T01:49:32;5.57;;;2.38;;
24034;SDS011;12242;50.952;4.678;2022-08-21T01:52:00;3.65;;;2.03;;
24034;SDS011;12242;50.952;4.678;2022-08-21T01:54:28;5.32;;;2.47;;
24034;SDS011;12242;50.952;4.678;2022-08-21T01:56:56;6.97;;;2.42;;
24034;SDS011;12242;50.952;4.678;2022-08-21T01:59:26;5.53;;;2.13;;
24034;SDS011;12242;50.952;4.678;2022-08-21T02:01:53;5.65;;;1.95;;
24034;SDS011;12242;50.952;4.678;2022-08-21T02:04:22;4.50;;;2.20;;
24034;SDS011;12242;50.952;4.678;2022-08-21T02:06:53;5.15;;;1.92;;
24034;SDS011;12242;50.952;4.678;2022-08-21T02:09:23;5.57;;;1.90;;
24034;SDS011;12242;50.952;4.678;2022-08-21T02:11:50;3.50;;;1.92;;
24034;SDS011;12242;50.952;4.678;2022-08-21T02:14:18;4.85;;;1.90;;
24034;SDS011;12242;50.952;4.678;2022-08-21T02:17:01;5.25;;;2.05;;
24034;SDS011;12242;50.952;4.678;2022-08-21T02:19:36;4.43;;;2.20;;
24034;SDS011;12242;50.952;4.678;2022-08-21T02:22:10;8.43;;;2.17;;
24034;SDS011;12242;50.952;4.678;2022-08-21T02:24:38;4.93;;;1.95;;
24034;SDS011;12242;50.952;4.678;2022-08-21T02:27:24;5.20;;;2.15;;
24034;SDS011;12242;50.952;4.678;2022-08-21T02:29:56;5.82;;;2.03;;
24034;SDS011;12242;50.952;4.678;2022-08-21T02:32:26;4.88;;;1.73;;
24034;SDS011;12242;50.952;4.678;2022-08-21T02:34:53;5.75;;;2.03;;
24034;SDS011;12242;50.952;4.678;2022-08-21T02:37:21;4.13;;;1.73;;
24034;SDS011;12242;50.952;4.678;2022-08-21T02:39:54;5.82;;;1.70;;
24034;SDS011;12242;50.952;4.678;2022-08-21T02:42:21;5.43;;;2.00;;
24034;SDS011;12242;50.952;4.678;2022-08-21T02:44:48;5.82;;;2.28;;
24034;SDS011;12242;50.952;4.678;2022-08-21T02:47:16;7.20;;;1.80;;
24034;SDS011;12242;50.952;4.678;2022-08-21T02:49:43;5.68;;;1.88;;
24034;SDS011;12242;50.952;4.678;2022-08-21T02:52:13;5.55;;;2.10;;
24034;SDS011;12242;50.952;4.678;2022-08-21T02:54:43;9.20;;;2.28;;
24034;SDS011;12242;50.952;4.678;2022-08-21T02:57:12;5.63;;;2.03;;
24034;SDS011;12242;50.952;4.678;2022-08-21T02:59:40;5.53;;;2.00;;
24034;SDS011;12242;50.952;4.678;2022-08-21T03:02:08;5.13;;;1.88;;
24034;SDS011;12242;50.952;4.678;2022-08-21T03:04:38;5.13;;;2.22;;
24034;SDS011;12242;50.952;4.678;2022-08-21T03:07:12;5.15;;;1.70;;
24034;SDS011;12242;50.952;4.678;2022-08-21T03:09:39;8.05;;;1.90;;
24034;SDS011;12242;50.952;4.678;2022-08-21T03:12:22;5.53;;;1.80;;
24034;SDS011;12242;50.952;4.678;2022-08-21T03:14:52;5.32;;;1.90;;
24034;SDS011;12242;50.952;4.678;2022-08-21T03:17:19;9.05;;;2.08;;
24034;SDS011;12242;50.952;4.678;2022-08-21T03:19:56;8.68;;;1.98;;
24034;SDS011;12242;50.952;4.678;2022-08-21T03:22:23;5.45;;;1.88;;
24034;SDS011;12242;50.952;4.678;2022-08-21T03:24:52;4.10;;;1.80;;
24034;SDS011;12242;50.952;4.678;2022-08-21T03:27:22;4.55;;;1.63;;
24034;SDS011;12242;50.952;4.678;2022-08-21T03:29:51;4.40;;;1.58;;
24034;SDS011;12242;50.952;4.678;2022-08-21T03:32:20;5.10;;;1.83;;
24034;SDS011;12242;50.952;4.678;2022-08-21T03:34:48;3.30;;;1.38;;
24034;SDS011;12242;50.952;4.678;2022-08-21T03:37:18;5.45;;;2.00;;
24034;SDS011;12242;50.952;4.678;2022-08-21T03:40:11;5.97;;;1.90;;
24034;SDS011;12242;50.952;4.678;2022-08-21T03:42:39;3.75;;;1.55;;
24034;SDS011;12242;50.952;4.678;2022-08-21T03:45:07;4.32;;;1.85;;
24034;SDS011;12242;50.952;4.678;2022-08-21T03:47:38;5.82;;;1.67;;
24034;SDS011;12242;50.952;4.678;2022-08-21T03:50:05;5.75;;;1.70;;
24034;SDS011;12242;50.952;4.678;2022-08-21T03:52:32;5.57;;;1.77;;
24034;SDS011;12242;50.952;4.678;2022-08-21T03:55:00;5.72;;;1.75;;
24034;SDS011;12242;50.952;4.678;2022-08-21T03:57:27;6.07;;;1.80;;
24034;SDS011;12242;50.952;4.678;2022-08-21T03:59:55;6.65;;;1.70;;
24034;SDS011;12242;50.952;4.678;2022-08-21T04:02:22;4.25;;;1.65;;
24034;SDS011;12242;50.952;4.678;2022-08-21T04:04:50;5.47;;;1.70;;
24034;SDS011;12242;50.952;4.678;2022-08-21T04:07:17;6.63;;;1.85;;
24034;SDS011;12242;50.952;4.678;2022-08-21T04:09:47;5.53;;;1.58;;
24034;SDS011;12242;50.952;4.678;2022-08-21T04:12:15;5.68;;;1.63;;
24034;SDS011;12242;50.952;4.678;2022-08-21T04:14:45;4.55;;;1.80;;
24034;SDS011;12242;50.952;4.678;2022-08-21T04:17:18;7.97;;;2.27;;
24034;SDS011;12242;50.952;4.678;2022-08-21T04:19:45;4.90;;;1.70;;
24034;SDS011;12242;50.952;4.678;2022-08-21T04:22:20;4.55;;;1.83;;
24034;SDS011;12242;50.952;4.678;2022-08-21T04:24:47;4.28;;;1.48;;
24034;SDS011;12242;50.952;4.678;2022-08-21T04:27:17;3.60;;;1.42;;
24034;SDS011;12242;50.952;4.678;2022-08-21T04:29:46;3.25;;;1.50;;
24034;SDS011;12242;50.952;4.678;2022-08-21T04:32:25;6.82;;;1.63;;
24034;SDS011;12242;50.952;4.678;2022-08-21T04:34:59;4.30;;;1.60;;
24034;SDS011;12242;50.952;4.678;2022-08-21T04:37:30;3.08;;;1.45;;
24034;SDS011;12242;50.952;4.678;2022-08-21T04:39:58;4.63;;;1.52;;
24034;SDS011;12242;50.952;4.678;2022-08-21T04:42:28;5.28;;;1.40;;
24034;SDS011;12242;50.952;4.678;2022-08-21T04:44:56;6.50;;;1.50;;
24034;SDS011;12242;50.952;4.678;2022-08-21T04:47:24;4.03;;;1.45;;
24034;SDS011;12242;50.952;4.678;2022-08-21T04:50:11;3.38;;;1.30;;
24034;SDS011;12242;50.952;4.678;2022-08-21T04:52:38;6.80;;;1.63;;
24034;SDS011;12242;50.952;4.678;2022-08-21T04:55:06;3.92;;;1.52;;
24034;SDS011;12242;50.952;4.678;2022-08-21T04:57:36;5.80;;;1.80;;
24034;SDS011;12242;50.952;4.678;2022-08-21T05:00:14;5.47;;;1.70;;
24034;SDS011;12242;50.952;4.678;2022-08-21T05:02:45;10.82;;;1.75;;
24034;SDS011;12242;50.952;4.678;2022-08-21T05:05:14;4.43;;;1.50;;
24034;SDS011;12242;50.952;4.678;2022-08-21T05:07:42;8.35;;;1.50;;
24034;SDS011;12242;50.952;4.678;2022-08-21T05:10:11;6.63;;;1.67;;
24034;SDS011;12242;50.952;4.678;2022-08-21T05:12:41;5.45;;;1.58;;
24034;SDS011;12242;50.952;4.678;2022-08-21T05:15:10;5.55;;;1.60;;
24034;SDS011;12242;50.952;4.678;2022-08-21T05:17:43;4.90;;;1.70;;
24034;SDS011;12242;50.952;4.678;2022-08-21T05:20:26;5.00;;;1.40;;
24034;SDS011;12242;50.952;4.678;2022-08-21T05:22:54;4.25;;;1.15;;
24034;SDS011;12242;50.952;4.678;2022-08-21T05:25:22;7.22;;;1.75;;
24034;SDS011;12242;50.952;4.678;2022-08-21T05:27:49;4.15;;;1.42;;
24034;SDS011;12242;50.952;4.678;2022-08-21T05:30:20;5.32;;;1.77;;
24034;SDS011;12242;50.952;4.678;2022-08-21T05:32:47;5.72;;;1.55;;
24034;SDS011;12242;50.952;4.678;2022-08-21T05:35:15;5.15;;;1.27;;
24034;SDS011;12242;50.952;4.678;2022-08-21T05:37:42;5.00;;;1.50;;
24034;SDS011;12242;50.952;4.678;2022-08-21T05:40:12;8.40;;;1.50;;
24034;SDS011;12242;50.952;4.678;2022-08-21T05:42:52;3.72;;;1.30;;
24034;SDS011;12242;50.952;4.678;2022-08-21T05:45:28;4.80;;;1.60;;
24034;SDS011;12242;50.952;4.678;2022-08-21T05:48:10;4.55;;;1.40;;
24034;SDS011;12242;50.952;4.678;2022-08-21T05:50:42;4.18;;;1.27;;
24034;SDS011;12242;50.952;4.678;2022-08-21T05:53:11;8.20;;;1.50;;
24034;SDS011;12242;50.952;4.678;2022-08-21T05:55:39;6.93;;;1.30;;
24034;SDS011;12242;50.952;4.678;2022-08-21T05:58:18;4.77;;;1.63;;
24034;SDS011;12242;50.952;4.678;2022-08-21T06:00:47;6.13;;;1.40;;
24034;SDS011;12242;50.952;4.678;2022-08-21T06:03:22;4.90;;;1.27;;
24034;SDS011;12242;50.952;4.678;2022-08-21T06:05:51;4.60;;;1.45;;
24034;SDS011;12242;50.952;4.678;2022-08-21T06:08:20;4.82;;;1.27;;
24034;SDS011;12242;50.952;4.678;2022-08-21T06:10:51;3.33;;;1.23;;
24034;SDS011;12242;50.952;4.678;2022-08-21T06:13:20;3.38;;;1.17;;
24034;SDS011;12242;50.952;4.678;2022-08-21T06:15:48;6.07;;;1.48;;
24034;SDS011;12242;50.952;4.678;2022-08-21T06:18:19;3.47;;;1.17;;
24034;SDS011;12242;50.952;4.678;2022-08-21T06:20:48;4.07;;;1.00;;
24034;SDS011;12242;50.952;4.678;2022-08-21T06:23:16;5.38;;;1.00;;
24034;SDS011;12242;50.952;4.678;2022-08-21T06:25:45;7.88;;;1.38;;
24034;SDS011;12242;50.952;4.678;2022-08-21T06:28:13;8.52;;;1.10;;
24034;SDS011;12242;50.952;4.678;2022-08-21T06:30:40;4.82;;;1.00;;
24034;SDS011;12242;50.952;4.678;2022-08-21T06:33:07;4.82;;;1.23;;
24034;SDS011;12242;50.952;4.678;2022-08-21T06:35:35;4.95;;;1.65;;
24034;SDS011;12242;50.952;4.678;2022-08-21T06:38:07;5.03;;;1.08;;
24034;SDS011;12242;50.952;4.678;2022-08-21T06:40:35;3.85;;;0.85;;
24034;SDS011;12242;50.952;4.678;2022-08-21T06:43:10;2.67;;;0.80;;
24034;SDS011;12242;50.952;4.678;2022-08-21T06:45:41;6.53;;;0.88;;
24034;SDS011;12242;50.952;4.678;2022-08-21T06:48:11;3.97;;;1.05;;
24034;SDS011;12242;50.952;4.678;2022-08-21T06:50:45;3.38;;;1.00;;
24034;SDS011;12242;50.952;4.678;2022-08-21T06:53:17;2.92;;;0.85;;
24034;SDS011;12242;50.952;4.678;2022-08-21T06:55:46;5.38;;;1.00;;
24034;SDS011;12242;50.952;4.678;2022-08-21T06:58:17;6.15;;;0.77;;
24034;SDS011;12242;50.952;4.678;2022-08-21T07:00:47;2.92;;;0.80;;
24034;SDS011;12242;50.952;4.678;2022-08-21T07:03:17;3.15;;;0.95;;
24034;SDS011;12242;50.952;4.678;2022-08-21T07:05:45;5.07;;;0.80;;
24034;SDS011;12242;50.952;4.678;2022-08-21T07:08:17;7.07;;;1.20;;
24034;SDS011;12242;50.952;4.678;2022-08-21T07:10:45;5.45;;;0.73;;
24034;SDS011;12242;50.952;4.678;2022-08-21T07:13:15;4.03;;;0.90;;
24034;SDS011;12242;50.952;4.678;2022-08-21T07:15:43;5.22;;;0.70;;
24034;SDS011;12242;50.952;4.678;2022-08-21T07:18:11;5.30;;;0.80;;
24034;SDS011;12242;50.952;4.678;2022-08-21T07:20:43;3.55;;;0.85;;
24034;SDS011;12242;50.952;4.678;2022-08-21T07:23:19;4.57;;;0.90;;
24034;SDS011;12242;50.952;4.678;2022-08-21T07:25:51;3.60;;;0.90;;
24034;SDS011;12242;50.952;4.678;2022-08-21T07:28:19;2.92;;;0.60;;
24034;SDS011;12242;50.952;4.678;2022-08-21T07:30:46;4.82;;;0.98;;
24034;SDS011;12242;50.952;4.678;2022-08-21T07:33:18;3.70;;;0.73;;
24034;SDS011;12242;50.952;4.678;2022-08-21T07:35:48;4.70;;;1.17;;
24034;SDS011;12242;50.952;4.678;2022-08-21T07:38:18;4.50;;;0.80;;
24034;SDS011;12242;50.952;4.678;2022-08-21T07:40:48;6.53;;;0.90;;
24034;SDS011;12242;50.952;4.678;2022-08-21T07:43:17;5.53;;;0.98;;
24034;SDS011;12242;50.952;4.678;2022-08-21T07:45:45;5.03;;;0.85;;
24034;SDS011;12242;50.952;4.678;2022-08-21T07:48:12;1.67;;;0.65;;
24034;SDS011;12242;50.952;4.678;2022-08-21T07:50:40;4.32;;;0.88;;
24034;SDS011;12242;50.952;4.678;2022-08-21T07:53:10;4.20;;;1.10;;
24034;SDS011;12242;50.952;4.678;2022-08-21T07:55:37;6.28;;;1.05;;
24034;SDS011;12242;50.952;4.678;2022-08-21T07:58:05;1.40;;;0.50;;
24034;SDS011;12242;50.952;4.678;2022-08-21T08:00:35;2.80;;;0.75;;
24034;SDS011;12242;50.952;4.678;2022-08-21T08:03:02;4.25;;;0.82;;
24034;SDS011;12242;50.952;4.678;2022-08-21T08:05:30;3.70;;;1.00;;
24034;SDS011;12242;50.952;4.678;2022-08-21T08:07:59;2.33;;;0.65;;
24034;SDS011;12242;50.952;4.678;2022-08-21T08:10:26;3.47;;;0.85;;
24034;SDS011;12242;50.952;4.678;2022-08-21T08:12:53;5.50;;;0.70;;
24034;SDS011;12242;50.952;4.678;2022-08-21T08:15:23;5.20;;;0.80;;
24034;SDS011;12242;50.952;4.678;2022-08-21T08:17:52;2.42;;;0.85;;
24034;SDS011;12242;50.952;4.678;2022-08-21T08:20:24;3.40;;;0.57;;
24034;SDS011;12242;50.952;4.678;2022-08-21T08:22:53;3.70;;;0.70;;
24034;SDS011;12242;50.952;4.678;2022-08-21T08:25:24;4.00;;;0.88;;
24034;SDS011;12242;50.952;4.678;2022-08-21T08:27:52;2.92;;;0.75;;
24034;SDS011;12242;50.952;4.678;2022-08-21T08:30:20;6.80;;;1.20;;
24034;SDS011;12242;50.952;4.678;2022-08-21T08:32:50;3.53;;;0.90;;
24034;SDS011;12242;50.952;4.678;2022-08-21T08:35:18;2.40;;;0.68;;
24034;SDS011;12242;50.952;4.678;2022-08-21T08:37:49;4.38;;;0.90;;
24034;SDS011;12242;50.952;4.678;2022-08-21T08:40:20;1.55;;;0.55;;
24034;SDS011;12242;50.952;4.678;2022-08-21T08:42:56;2.83;;;0.82;;
24034;SDS011;12242;50.952;4.678;2022-08-21T08:45:24;6.63;;;0.68;;
24034;SDS011;12242;50.952;4.678;2022-08-21T08:47:56;3.47;;;0.90;;
24034;SDS011;12242;50.952;4.678;2022-08-21T08:53:11;4.50;;;0.77;;
24034;SDS011;12242;50.952;4.678;2022-08-21T08:55:44;7.43;;;1.20;;
24034;SDS011;12242;50.952;4.678;2022-08-21T08:58:14;4.80;;;0.82;;
24034;SDS011;12242;50.952;4.678;2022-08-21T09:00:49;6.32;;;1.02;;
24034;SDS011;12242;50.952;4.678;2022-08-21T09:03:19;5.30;;;0.73;;
24034;SDS011;12242;50.952;4.678;2022-08-21T09:05:58;3.25;;;0.55;;
24034;SDS011;12242;50.952;4.678;2022-08-21T09:08:54;4.03;;;0.70;;
24034;SDS011;12242;50.952;4.678;2022-08-21T09:17:45;3.42;;;0.98;;
24034;SDS011;12242;50.952;4.678;2022-08-21T09:20:40;2.15;;;0.75;;
24034;SDS011;12242;50.952;4.678;2022-08-21T09:23:35;2.55;;;0.80;;
24034;SDS011;12242;50.952;4.678;2022-08-21T09:26:24;3.80;;;1.02;;
24034;SDS011;12242;50.952;4.678;2022-08-21T09:28:54;2.28;;;0.60;;
24034;SDS011;12242;50.952;4.678;2022-08-21T09:31:26;4.70;;;0.90;;
24034;SDS011;12242;50.952;4.678;2022-08-21T09:34:03;4.45;;;0.95;;
24034;SDS011;12242;50.952;4.678;2022-08-21T09:39:25;4.03;;;0.75;;
24034;SDS011;12242;50.952;4.678;2022-08-21T09:41:59;3.30;;;0.95;;
24034;SDS011;12242;50.952;4.678;2022-08-21T09:44:34;3.78;;;0.85;;
24034;SDS011;12242;50.952;4.678;2022-08-21T09:47:07;3.08;;;1.00;;
24034;SDS011;12242;50.952;4.678;2022-08-21T09:49:42;3.30;;;0.65;;
24034;SDS011;12242;50.952;4.678;2022-08-21T09:52:19;3.53;;;1.23;;
24034;SDS011;12242;50.952;4.678;2022-08-21T09:54:52;3.40;;;0.77;;
24034;SDS011;12242;50.952;4.678;2022-08-21T09:57:28;8.73;;;0.90;;
24034;SDS011;12242;50.952;4.678;2022-08-21T10:00:23;6.88;;;1.00;;
24034;SDS011;12242;50.952;4.678;2022-08-21T10:03:07;4.28;;;0.90;;
24034;SDS011;12242;50.952;4.678;2022-08-21T10:05:36;5.53;;;0.93;;
24034;SDS011;12242;50.952;4.678;2022-08-21T10:08:16;3.13;;;0.77;;
24034;SDS011;12242;50.952;4.678;2022-08-21T10:10:44;5.78;;;1.00;;
24034;SDS011;12242;50.952;4.678;2022-08-21T10:13:14;4.68;;;1.00;;
24034;SDS011;12242;50.952;4.678;2022-08-21T10:18:41;4.53;;;0.90;;
24034;SDS011;12242;50.952;4.678;2022-08-21T10:21:29;3.03;;;0.90;;
24034;SDS011;12242;50.952;4.678;2022-08-21T10:24:12;2.75;;;0.70;;
24034;SDS011;12242;50.952;4.678;2022-08-21T10:27:05;3.47;;;0.70;;
24034;SDS011;12242;50.952;4.678;2022-08-21T10:44:09;3.88;;;0.95;;
24034;SDS011;12242;50.952;4.678;2022-08-21T10:49:41;5.95;;;1.10;;
24034;SDS011;12242;50.952;4.678;2022-08-21T10:55:12;5.22;;;1.02;;
24034;SDS011;12242;50.952;4.678;2022-08-21T10:57:57;6.30;;;0.82;;
24034;SDS011;12242;50.952;4.678;2022-08-21T11:03:34;5.18;;;1.02;;
24034;SDS011;12242;50.952;4.678;2022-08-21T11:06:12;5.30;;;1.10;;
24034;SDS011;12242;50.952;4.678;2022-08-21T11:08:53;5.75;;;1.23;;
24034;SDS011;12242;50.952;4.678;2022-08-21T11:11:44;4.60;;;1.00;;
24034;SDS011;12242;50.952;4.678;2022-08-21T11:14:41;6.47;;;0.88;;
24034;SDS011;12242;50.952;4.678;2022-08-21T11:17:24;5.50;;;1.27;;
24034;SDS011;12242;50.952;4.678;2022-08-21T11:20:05;6.05;;;1.02;;
24034;SDS011;12242;50.952;4.678;2022-08-21T11:22:40;3.80;;;1.17;;
24034;SDS011;12242;50.952;4.678;2022-08-21T11:25:34;8.20;;;1.13;;
24034;SDS011;12242;50.952;4.678;2022-08-21T11:28:15;4.95;;;0.88;;
24034;SDS011;12242;50.952;4.678;2022-08-21T11:31:06;2.45;;;0.68;;
24034;SDS011;12242;50.952;4.678;2022-08-21T11:33:59;6.97;;;1.10;;
24034;SDS011;12242;50.952;4.678;2022-08-21T11:39:17;6.05;;;0.90;;
24034;SDS011;12242;50.952;4.678;2022-08-21T11:42:01;6.70;;;0.98;;
24034;SDS011;12242;50.952;4.678;2022-08-21T11:45:06;5.35;;;1.10;;
24034;SDS011;12242;50.952;4.678;2022-08-21T11:51:04;4.10;;;0.70;;
24034;SDS011;12242;50.952;4.678;2022-08-21T11:53:42;5.53;;;1.17;;
24034;SDS011;12242;50.952;4.678;2022-08-21T11:56:26;4.05;;;1.15;;
24034;SDS011;12242;50.952;4.678;2022-08-21T11:59:19;4.18;;;1.10;;
24034;SDS011;12242;50.952;4.678;2022-08-21T12:01:50;5.20;;;0.95;;
24034;SDS011;12242;50.952;4.678;2022-08-21T12:04:28;6.68;;;1.00;;
24034;SDS011;12242;50.952;4.678;2022-08-21T12:07:10;6.45;;;0.93;;
24034;SDS011;12242;50.952;4.678;2022-08-21T12:09:53;3.80;;;0.90;;
24034;SDS011;12242;50.952;4.678;2022-08-21T12:15:04;2.83;;;0.93;;
24034;SDS011;12242;50.952;4.678;2022-08-21T12:17:36;4.20;;;0.90;;
24034;SDS011;12242;50.952;4.678;2022-08-21T12:23:01;6.47;;;0.80;;
24034;SDS011;12242;50.952;4.678;2022-08-21T12:25:39;2.42;;;0.80;;
24034;SDS011;12242;50.952;4.678;2022-08-21T12:28:27;6.82;;;0.95;;
24034;SDS011;12242;50.952;4.678;2022-08-21T12:31:00;3.65;;;0.95;;
24034;SDS011;12242;50.952;4.678;2022-08-21T12:33:35;5.43;;;1.20;;
24034;SDS011;12242;50.952;4.678;2022-08-21T12:36:15;5.32;;;1.10;;
24034;SDS011;12242;50.952;4.678;2022-08-21T12:38:51;3.35;;;0.88;;
24034;SDS011;12242;50.952;4.678;2022-08-21T12:41:47;3.22;;;0.90;;
24034;SDS011;12242;50.952;4.678;2022-08-21T12:44:29;4.72;;;0.82;;
24034;SDS011;12242;50.952;4.678;2022-08-21T12:46:59;3.25;;;0.80;;
24034;SDS011;12242;50.952;4.678;2022-08-21T12:49:56;6.68;;;1.00;;
24034;SDS011;12242;50.952;4.678;2022-08-21T12:52:41;3.95;;;0.98;;
24034;SDS011;12242;50.952;4.678;2022-08-21T12:55:25;6.32;;;0.93;;
24034;SDS011;12242;50.952;4.678;2022-08-21T12:57:54;3.28;;;0.90;;
24034;SDS011;12242;50.952;4.678;2022-08-21T13:00:26;4.82;;;0.80;;
24034;SDS011;12242;50.952;4.678;2022-08-21T13:02:56;5.63;;;0.90;;
24034;SDS011;12242;50.952;4.678;2022-08-21T13:05:35;5.82;;;0.95;;
24034;SDS011;12242;50.952;4.678;2022-08-21T13:08:04;6.97;;;1.08;;
24034;SDS011;12242;50.952;4.678;2022-08-21T13:10:36;4.07;;;1.13;;
24034;SDS011;12242;50.952;4.678;2022-08-21T13:13:14;5.10;;;1.15;;
24034;SDS011;12242;50.952;4.678;2022-08-21T13:16:02;6.97;;;1.20;;
24034;SDS011;12242;50.952;4.678;2022-08-21T13:18:33;4.63;;;0.98;;
24034;SDS011;12242;50.952;4.678;2022-08-21T13:21:04;4.07;;;0.90;;
24034;SDS011;12242;50.952;4.678;2022-08-21T13:23:38;4.05;;;1.15;;
24034;SDS011;12242;50.952;4.678;2022-08-21T13:26:12;7.35;;;1.00;;
24034;SDS011;12242;50.952;4.678;2022-08-21T13:28:48;4.85;;;0.93;;
24034;SDS011;12242;50.952;4.678;2022-08-21T13:31:18;8.63;;;1.23;;
24034;SDS011;12242;50.952;4.678;2022-08-21T13:33:51;5.38;;;1.38;;
24034;SDS011;12242;50.952;4.678;2022-08-21T13:36:24;5.05;;;1.25;;
24034;SDS011;12242;50.952;4.678;2022-08-21T13:38:56;4.30;;;1.00;;
24034;SDS011;12242;50.952;4.678;2022-08-21T13:41:27;5.25;;;1.23;;
24034;SDS011;12242;50.952;4.678;2022-08-21T13:43:58;7.40;;;1.02;;
24034;SDS011;12242;50.952;4.678;2022-08-21T13:46:29;4.15;;;0.88;;
24034;SDS011;12242;50.952;4.678;2022-08-21T13:49:04;5.28;;;1.23;;
24034;SDS011;12242;50.952;4.678;2022-08-21T13:51:33;4.25;;;1.33;;
24034;SDS011;12242;50.952;4.678;2022-08-21T13:54:15;4.90;;;1.02;;
24034;SDS011;12242;50.952;4.678;2022-08-21T13:57:00;5.03;;;0.88;;
24034;SDS011;12242;50.952;4.678;2022-08-21T13:59:32;4.40;;;1.10;;
24034;SDS011;12242;50.952;4.678;2022-08-21T14:04:44;6.25;;;1.00;;
24034;SDS011;12242;50.952;4.678;2022-08-21T14:07:24;3.88;;;1.00;;
24034;SDS011;12242;50.952;4.678;2022-08-21T14:09:55;4.93;;;1.38;;
24034;SDS011;12242;50.952;4.678;2022-08-21T14:12:32;4.07;;;1.20;;
24034;SDS011;12242;50.952;4.678;2022-08-21T14:15:09;4.20;;;1.00;;
24034;SDS011;12242;50.952;4.678;2022-08-21T14:17:40;4.53;;;1.00;;
24034;SDS011;12242;50.952;4.678;2022-08-21T14:20:10;9.27;;;0.98;;
24034;SDS011;12242;50.952;4.678;2022-08-21T14:27:57;7.97;;;1.02;;
24034;SDS011;12242;50.952;4.678;2022-08-21T14:30:36;6.75;;;0.98;;
24034;SDS011;12242;50.952;4.678;2022-08-21T14:33:10;3.80;;;1.05;;
24034;SDS011;12242;50.952;4.678;2022-08-21T14:35:39;3.33;;;0.82;;
24034;SDS011;12242;50.952;4.678;2022-08-21T14:38:11;3.85;;;0.90;;
24034;SDS011;12242;50.952;4.678;2022-08-21T14:40:43;5.45;;;1.02;;
24034;SDS011;12242;50.952;4.678;2022-08-21T14:43:20;3.67;;;1.02;;
24034;SDS011;12242;50.952;4.678;2022-08-21T14:45:52;6.53;;;1.10;;
24034;SDS011;12242;50.952;4.678;2022-08-21T14:48:19;5.20;;;1.20;;
24034;SDS011;12242;50.952;4.678;2022-08-21T14:50:47;3.50;;;0.98;;
24034;SDS011;12242;50.952;4.678;2022-08-21T14:53:17;3.90;;;0.77;;
24034;SDS011;12242;50.952;4.678;2022-08-21T14:55:44;3.85;;;1.00;;
24034;SDS011;12242;50.952;4.678;2022-08-21T14:58:30;5.00;;;1.10;;
24034;SDS011;12242;50.952;4.678;2022-08-21T15:00:58;7.70;;;1.10;;
24034;SDS011;12242;50.952;4.678;2022-08-21T15:03:30;5.28;;;1.05;;
24034;SDS011;12242;50.952;4.678;2022-08-21T15:05:58;4.10;;;1.00;;
24034;SDS011;12242;50.952;4.678;2022-08-21T15:08:26;4.22;;;0.85;;
24034;SDS011;12242;50.952;4.678;2022-08-21T15:10:54;4.05;;;0.95;;
24034;SDS011;12242;50.952;4.678;2022-08-21T15:13:38;3.10;;;0.82;;
24034;SDS011;12242;50.952;4.678;2022-08-21T15:16:05;3.97;;;0.95;;
24034;SDS011;12242;50.952;4.678;2022-08-21T15:18:38;4.47;;;1.03;;
24034;SDS011;12242;50.952;4.678;2022-08-21T15:21:06;3.72;;;0.88;;
24034;SDS011;12242;50.952;4.678;2022-08-21T15:23:36;4.28;;;0.88;;
24034;SDS011;12242;50.952;4.678;2022-08-21T15:26:09;5.35;;;1.25;;
24034;SDS011;12242;50.952;4.678;2022-08-21T15:28:37;4.65;;;0.90;;
24034;SDS011;12242;50.952;4.678;2022-08-21T15:31:07;6.95;;;1.02;;
24034;SDS011;12242;50.952;4.678;2022-08-21T15:33:36;5.07;;;1.00;;
24034;SDS011;12242;50.952;4.678;2022-08-21T15:36:04;4.95;;;1.00;;
24034;SDS011;12242;50.952;4.678;2022-08-21T15:38:34;3.22;;;1.15;;
24034;SDS011;12242;50.952;4.678;2022-08-21T15:41:02;5.55;;;0.90;;
24034;SDS011;12242;50.952;4.678;2022-08-21T15:43:34;6.38;;;0.93;;
24034;SDS011;12242;50.952;4.678;2022-08-21T15:46:07;3.97;;;1.08;;
24034;SDS011;12242;50.952;4.678;2022-08-21T15:48:39;7.70;;;1.02;;
24034;SDS011;12242;50.952;4.678;2022-08-21T15:51:07;6.38;;;1.08;;
24034;SDS011;12242;50.952;4.678;2022-08-21T15:53:35;6.78;;;0.90;;
24034;SDS011;12242;50.952;4.678;2022-08-21T15:56:06;5.05;;;1.00;;
24034;SDS011;12242;50.952;4.678;2022-08-21T15:58:38;2.38;;;0.80;;
24034;SDS011;12242;50.952;4.678;2022-08-21T16:01:10;4.43;;;1.17;;
24034;SDS011;12242;50.952;4.678;2022-08-21T16:03:38;4.95;;;1.02;;
24034;SDS011;12242;50.952;4.678;2022-08-21T16:06:05;2.85;;;0.95;;
24034;SDS011;12242;50.952;4.678;2022-08-21T16:08:35;6.05;;;0.90;;
24034;SDS011;12242;50.952;4.678;2022-08-21T16:11:02;4.20;;;0.90;;
24034;SDS011;12242;50.952;4.678;2022-08-21T16:13:32;6.63;;;1.00;;
24034;SDS011;12242;50.952;4.678;2022-08-21T16:16:13;4.15;;;0.98;;
24034;SDS011;12242;50.952;4.678;2022-08-21T16:18:43;6.65;;;1.13;;
24034;SDS011;12242;50.952;4.678;2022-08-21T16:21:11;5.75;;;0.95;;